Time;durP1;ratioP1;P1;durP2;ratioP2;P2;SDS_P1;SDS_P2;PMS_P1;PMS_P2;Temp;Humidity;BMP_temperature;BMP_pressure;BME280_temperature;BME280_humidity;BME280_pressure;Samples;Min_cycle;Max_cycle;Signal;HPM_P1;HPM_P2
2023/08/21 00:00:55;;;;;;;5.30;2.90;;;27.50;59.40;28.20;101378.00;;;;5009932;28;20184;-55
2023/08/21 00:03:21;;;;;;;4.65;2.85;;;27.50;59.50;28.20;101385.00;;;;5008743;28;20593;-55
2023/08/21 00:05:47;;;;;;;3.35;3.05;;;27.50;59.60;28.10;101383.00;;;;5009024;28;20278;-56
2023/08/21 00:08:13;;;;;;;4.20;2.90;;;27.50;59.80;28.10;101387.00;;;;5009002;28;20187;-55
2023/08/21 00:10:39;;;;;;;3.63;2.92;;;27.50;59.70;28.10;101385.00;;;;5008897;28;20188;-55
2023/08/21 00:13:05;;;;;;;3.83;3.00;;;27.50;59.70;28.10;101394.00;;;;5008806;28;20667;-56
2023/08/21 00:15:31;;;;;;;3.10;2.72;;;27.50;59.90;28.10;101397.00;;;;5007712;28;20183;-55
2023/08/21 00:17:57;;;;;;;3.55;2.95;;;27.50;59.90;28.10;101336.00;;;;4972266;28;1066895;-56
2023/08/21 00:20:23;;;;;;;4.47;2.90;;;27.50;60.10;28.10;101401.00;;;;5009965;28;20233;-57
2023/08/21 00:22:48;;;;;;;3.97;2.83;;;27.50;60.30;28.10;101395.00;;;;5014878;28;20654;-56
2023/08/21 00:25:14;;;;;;;3.75;2.78;;;27.40;60.20;28.10;101391.00;;;;5009704;28;20179;-57
2023/08/21 00:27:40;;;;;;;4.07;2.90;;;27.40;60.20;28.10;101395.00;;;;5009860;28;20179;-56
2023/08/21 00:30:06;;;;;;;4.00;2.92;;;27.40;60.20;28.10;101398.00;;;;5009439;28;20203;-56
2023/08/21 00:32:32;;;;;;;3.63;2.90;;;27.40;60.30;28.10;101396.00;;;;5009805;28;20518;-56
2023/08/21 00:34:58;;;;;;;3.22;2.80;;;27.40;60.40;28.00;101398.00;;;;5009861;28;20183;-56
2023/08/21 00:37:23;;;;;;;4.03;3.00;;;27.40;60.50;28.00;101387.00;;;;5009979;28;20645;-55
2023/08/21 00:39:49;;;;;;;2.92;2.63;;;27.30;60.50;28.00;101392.00;;;;5009414;28;20240;-54
2023/08/21 00:42:15;;;;;;;3.17;2.85;;;27.40;60.60;28.00;101387.00;;;;5009476;28;20212;-55
2023/08/21 00:44:41;;;;;;;5.60;3.05;;;27.30;60.50;28.00;101380.00;;;;5009505;28;20184;-56
2023/08/21 00:47:06;;;;;;;4.22;3.20;;;27.30;60.60;27.90;101387.00;;;;5009152;28;20175;-55
2023/08/21 00:49:32;;;;;;;4.30;2.72;;;27.30;60.60;27.90;101389.00;;;;5008530;28;20638;-56
2023/08/21 00:51:58;;;;;;;3.90;2.50;;;27.30;60.70;27.90;101390.00;;;;5007853;28;20175;-56
2023/08/21 00:54:24;;;;;;;3.97;3.10;;;27.30;60.90;27.90;101392.00;;;;5009345;28;20237;-59
2023/08/21 00:56:52;;;;;;;3.03;2.80;;;27.30;61.60;27.90;101383.00;;;;4995468;28;20210;-55
2023/08/21 00:59:19;;;;;;;3.13;2.80;;;27.30;60.90;27.90;101388.00;;;;5008535;28;20195;-55
2023/08/21 01:01:44;;;;;;;3.95;3.00;;;27.20;60.90;27.90;101389.00;;;;5007669;28;20180;-56
2023/08/21 01:04:10;;;;;;;3.38;2.83;;;27.20;60.80;27.90;101381.00;;;;5007716;28;20214;-56
2023/08/21 01:06:36;;;;;;;3.80;2.80;;;27.30;61.00;27.90;101378.00;;;;5009139;28;20184;-56
2023/08/21 01:09:16;;;;;;;2.90;2.65;;;27.20;61.00;27.80;101377.00;;;;5007690;28;20234;-56
2023/08/21 01:12:22;;;;;;;5.28;3.00;;;27.20;61.00;27.80;101387.00;;;;4978200;28;20179;-56
2023/08/21 01:14:59;;;;;;;3.58;2.92;;;27.20;61.00;27.80;101329.00;;;;5008113;28;20602;-56
2023/08/21 01:17:25;;;;;;;3.25;2.78;;;27.20;61.10;27.80;101388.00;;;;5007802;28;20191;-56
2023/08/21 01:19:51;;;;;;;4.10;3.10;;;27.20;61.10;27.80;101382.00;;;;5007532;28;20706;-57
2023/08/21 01:22:16;;;;;;;3.97;3.00;;;27.20;61.10;27.70;101381.00;;;;4995795;28;20200;-56
2023/08/21 01:24:42;;;;;;;3.22;2.92;;;27.20;61.10;27.70;101388.00;;;;5008623;28;20523;-57
2023/08/21 01:27:12;;;;;;;4.35;2.90;;;27.10;61.10;27.70;101394.00;;;;5008883;28;20410;-57
2023/08/21 01:29:38;;;;;;;4.80;2.90;;;27.10;61.10;27.70;101392.00;;;;4991591;28;20209;-57
2023/08/21 01:32:29;;;;;;;3.10;2.88;;;27.10;61.10;27.70;101384.00;;;;5008426;28;20266;-57
2023/08/21 01:34:55;;;;;;;2.90;2.70;;;27.10;61.00;27.70;101400.00;;;;4991054;28;20171;-57
2023/08/21 01:37:22;;;;;;;4.50;3.05;;;27.10;60.90;27.70;101398.00;;;;5008388;28;20690;-55
2023/08/21 01:39:47;;;;;;;3.53;3.15;;;27.10;61.00;27.70;101404.00;;;;5006960;28;20195;-56
2023/08/21 01:42:13;;;;;;;3.55;2.70;;;27.10;61.20;27.70;101394.00;;;;5008360;28;20647;-56
2023/08/21 01:44:39;;;;;;;3.78;3.00;;;27.10;61.30;27.60;101401.00;;;;5008429;28;20188;-55
2023/08/21 01:47:05;;;;;;;3.75;3.10;;;27.10;61.30;27.60;101410.00;;;;5008355;28;20184;-55
2023/08/21 01:49:31;;;;;;;3.67;2.92;;;27.10;60.90;27.60;101391.00;;;;5008170;28;20208;-56
2023/08/21 01:51:56;;;;;;;3.30;3.00;;;27.10;61.10;27.60;101411.00;;;;5008454;28;20179;-56
2023/08/21 01:54:22;;;;;;;3.20;2.90;;;27.10;61.30;27.60;101405.00;;;;5008223;28;20180;-56
2023/08/21 01:56:48;;;;;;;3.67;2.80;;;27.00;61.30;27.60;101405.00;;;;5008074;28;20593;-56
2023/08/21 01:59:15;;;;;;;3.03;2.72;;;27.00;61.40;27.50;101401.00;;;;5007927;28;20595;-56
2023/08/21 02:01:41;;;;;;;3.78;3.20;;;27.00;61.30;27.50;101395.00;;;;5007987;28;20671;-56
2023/08/21 02:04:07;;;;;;;3.22;2.92;;;27.00;61.20;27.50;101399.00;;;;5007689;28;20207;-56
2023/08/21 02:06:33;;;;;;;3.40;3.03;;;27.00;61.30;27.50;101398.00;;;;5008056;28;20643;-56
2023/08/21 02:08:58;;;;;;;4.15;3.15;;;27.00;61.50;27.50;101397.00;;;;5007911;28;20210;-56
2023/08/21 02:11:24;;;;;;;3.85;2.90;;;26.90;61.60;27.50;101402.00;;;;5007844;28;20324;-56
2023/08/21 02:13:50;;;;;;;3.78;2.90;;;27.00;61.60;27.40;101411.00;;;;5008316;28;20680;-56
2023/08/21 02:16:15;;;;;;;4.07;2.90;;;27.00;61.50;27.40;101407.00;;;;5007815;28;20234;-55
2023/08/21 02:18:41;;;;;;;3.05;2.70;;;26.90;61.40;27.40;101395.00;;;;5007798;28;20215;-56
2023/08/21 02:21:07;;;;;;;3.00;2.70;;;26.90;61.40;27.40;101403.00;;;;5012478;28;20175;-56
2023/08/21 02:23:33;;;;;;;3.38;3.08;;;26.90;61.60;27.40;101394.00;;;;5008103;28;20678;-55
2023/08/21 02:25:58;;;;;;;3.65;2.92;;;26.80;61.60;27.40;101391.00;;;;5007907;28;20290;-55
2023/08/21 02:28:24;;;;;;;3.20;2.90;;;26.80;61.60;27.30;101396.00;;;;5008135;28;20199;-55
2023/08/21 02:30:50;;;;;;;3.55;3.00;;;26.80;61.60;27.30;101396.00;;;;5008043;28;20196;-55
2023/08/21 02:33:15;;;;;;;4.25;3.10;;;26.70;61.80;27.30;101394.00;;;;5007622;28;20195;-56
2023/08/21 02:35:41;;;;;;;3.45;3.10;;;26.70;62.10;27.20;101390.00;;;;5008090;28;20183;-56
2023/08/21 02:38:07;;;;;;;4.57;3.00;;;26.70;61.90;27.20;101388.00;;;;5007706;28;20183;-55
2023/08/21 02:40:33;;;;;;;5.30;3.20;;;26.70;62.80;27.20;101386.00;;;;5007461;28;20662;-55
2023/08/21 02:42:59;;;;;;;3.40;3.10;;;26.70;62.10;27.20;101386.00;;;;5007448;28;20270;-56
2023/08/21 02:45:24;;;;;;;4.28;3.22;;;26.60;61.90;27.20;101385.00;;;;5007574;28;20179;-55
2023/08/21 02:47:50;;;;;;;3.28;2.83;;;26.60;61.90;27.10;101385.00;;;;5007375;28;20255;-56
2023/08/21 02:50:16;;;;;;;3.28;2.97;;;26.60;62.00;27.20;101384.00;;;;5007322;28;20210;-56
2023/08/21 02:52:41;;;;;;;3.85;3.30;;;26.70;62.10;27.10;101378.00;;;;5007804;28;20223;-55
2023/08/21 02:55:07;;;;;;;3.10;2.83;;;26.60;62.00;27.10;101368.00;;;;5007709;28;20257;-55
2023/08/21 02:57:33;;;;;;;3.22;2.90;;;26.60;62.10;27.10;101383.00;;;;5007722;28;20183;-55
2023/08/21 02:59:59;;;;;;;3.20;2.90;;;26.60;62.00;27.10;101386.00;;;;5007531;28;20554;-56
2023/08/21 03:02:25;;;;;;;4.93;2.97;;;26.60;61.90;27.10;101383.00;;;;5009108;28;20196;-56
2023/08/21 03:04:51;;;;;;;5.03;2.88;;;26.50;61.80;27.10;101387.00;;;;5012195;28;20604;-56
2023/08/21 03:07:18;;;;;;;3.17;2.88;;;26.50;61.50;27.00;101378.00;;;;5009549;28;20875;-56
2023/08/21 03:09:45;;;;;;;4.20;3.00;;;26.50;61.70;27.00;101378.00;;;;5009140;28;20671;-56
2023/08/21 03:12:11;;;;;;;3.33;2.65;;;26.50;61.70;27.00;101373.00;;;;5011241;28;20179;-56
2023/08/21 03:14:36;;;;;;;3.95;3.33;;;26.50;61.50;27.00;101376.00;;;;5012748;28;20199;-56
2023/08/21 03:17:02;;;;;;;4.30;3.17;;;26.60;61.50;27.00;101382.00;;;;5012693;28;20646;-60
2023/08/21 03:19:28;;;;;;;3.83;3.08;;;26.60;61.90;27.00;101377.00;;;;5014331;28;20212;-56
2023/08/21 03:21:54;;;;;;;3.97;2.80;;;26.60;61.40;27.00;101378.00;;;;5017985;28;20708;-55
2023/08/21 03:24:20;;;;;;;6.15;3.38;;;26.60;61.50;27.00;101381.00;;;;5010912;28;20736;-55
2023/08/21 03:26:46;;;;;;;3.97;3.05;;;26.50;61.60;26.90;101367.00;;;;5012372;28;20175;-55
2023/08/21 03:29:11;;;;;;;7.07;3.30;;;26.50;61.90;26.90;101365.00;;;;5012133;28;20211;-54
2023/08/21 03:31:37;;;;;;;3.67;3.20;;;26.50;62.20;26.90;101380.00;;;;5011410;28;20176;-55
2023/08/21 03:34:03;;;;;;;3.80;2.97;;;26.60;62.30;26.90;101376.00;;;;5012214;28;20586;-56
2023/08/21 03:36:32;;;;;;;3.83;3.20;;;26.60;62.10;26.90;101370.00;;;;5012203;28;20176;-56
2023/08/21 03:38:59;;;;;;;4.78;3.13;;;26.50;62.00;26.80;101371.00;;;;5012026;28;20663;-56
2023/08/21 03:41:24;;;;;;;4.60;3.20;;;26.50;62.00;26.80;101366.00;;;;5011987;28;20175;-55
2023/08/21 03:43:50;;;;;;;4.68;3.00;;;26.50;61.80;26.80;101367.00;;;;5012030;28;20683;-56
2023/08/21 03:46:16;;;;;;;4.30;3.33;;;26.50;62.20;26.80;101372.00;;;;5011733;28;20187;-56
2023/08/21 03:48:41;;;;;;;4.47;3.00;;;26.50;62.10;26.80;101364.00;;;;5011878;28;20212;-57
2023/08/21 03:51:07;;;;;;;5.28;3.40;;;26.60;61.90;26.80;101373.00;;;;5011713;28;20187;-56
2023/08/21 03:53:33;;;;;;;4.05;3.00;;;26.50;61.90;26.80;101374.00;;;;5012123;28;20195;-57
2023/08/21 03:55:59;;;;;;;3.63;3.13;;;26.40;62.10;26.80;101367.00;;;;5012026;28;20180;-56
2023/08/21 03:58:26;;;;;;;4.25;3.00;;;26.50;61.80;26.70;101356.00;;;;5011879;28;20171;-55
2023/08/21 04:00:54;;;;;;;4.97;3.20;;;26.40;62.10;26.70;101368.00;;;;5009688;28;20233;-55
2023/08/21 04:03:21;;;;;;;3.38;2.97;;;26.30;62.30;26.70;101358.00;;;;5011386;28;20439;-55
2023/08/21 04:05:46;;;;;;;4.30;3.28;;;26.40;62.50;26.70;101369.00;;;;5011315;28;20191;-56
2023/08/21 04:08:12;;;;;;;4.93;3.30;;;26.40;62.10;26.70;101370.00;;;;5010080;28;20179;-56
2023/08/21 04:10:41;;;;;;;3.97;3.17;;;26.40;62.10;26.70;101364.00;;;;5011113;28;20175;-56
2023/08/21 04:13:07;;;;;;;4.88;2.95;;;26.40;62.10;26.70;101368.00;;;;5006696;28;20196;-56
2023/08/21 04:15:35;;;;;;;3.38;3.08;;;26.40;62.10;26.60;101369.00;;;;5010499;28;20688;-56
2023/08/21 04:18:01;;;;;;;8.18;3.40;;;26.40;62.10;26.60;101379.00;;;;5010991;28;20234;-56
2023/08/21 04:20:27;;;;;;;3.60;3.03;;;26.30;62.10;26.60;101374.00;;;;5011160;28;20238;-55
2023/08/21 04:22:53;;;;;;;4.45;3.35;;;26.30;62.10;26.60;101377.00;;;;5010707;28;20199;-55
2023/08/21 04:25:18;;;;;;;3.90;3.10;;;26.30;62.10;26.60;101370.00;;;;5010521;28;20180;-55
2023/08/21 04:27:44;;;;;;;3.78;3.00;;;26.30;62.10;26.60;101373.00;;;;5010670;28;20179;-56
2023/08/21 04:30:11;;;;;;;3.90;3.10;;;26.20;62.20;26.50;101385.00;;;;5010250;28;20604;-56
2023/08/21 04:32:36;;;;;;;5.97;3.22;;;26.20;62.60;26.50;101376.00;;;;5010772;28;20290;-56
2023/08/21 04:35:02;;;;;;;5.38;3.33;;;26.20;62.80;26.50;101373.00;;;;5010602;28;20314;-57
2023/08/21 04:37:28;;;;;;;4.22;3.30;;;26.20;62.70;26.50;101369.00;;;;5010612;28;20270;-56
2023/08/21 04:39:54;;;;;;;7.05;3.30;;;26.20;62.40;26.50;101375.00;;;;5010185;28;20183;-57
2023/08/21 04:42:20;;;;;;;4.20;3.30;;;26.20;62.30;26.50;101378.00;;;;5010280;28;20208;-57
2023/08/21 04:44:46;;;;;;;3.75;3.17;;;26.20;62.40;26.50;101365.00;;;;5009252;28;20203;-57
2023/08/21 04:47:28;;;;;;;3.95;3.30;;;26.20;62.60;26.40;101375.00;;;;5010544;28;20277;-57
2023/08/21 04:49:54;;;;;;;5.88;3.25;;;26.10;63.10;26.40;101379.00;;;;5009814;28;20286;-57
2023/08/21 04:52:21;;;;;;;4.30;3.33;;;26.10;62.90;26.40;101383.00;;;;5010109;28;20196;-56
2023/08/21 04:54:48;;;;;;;4.70;3.67;;;26.20;62.60;26.40;101376.00;;;;5010172;28;20202;-56
2023/08/21 04:57:14;;;;;;;4.95;3.45;;;26.10;62.70;26.40;101390.00;;;;5010382;28;20176;-55
2023/08/21 04:59:39;;;;;;;4.97;3.30;;;26.10;63.00;26.30;101387.00;;;;5009304;28;20418;-55
2023/08/21 05:02:05;;;;;;;4.32;3.90;;;26.10;62.80;26.30;101387.00;;;;5010319;28;20199;-57
2023/08/21 05:04:31;;;;;;;5.68;5.10;;;26.00;63.00;26.30;101398.00;;;;5010081;28;20556;-57
2023/08/21 05:06:56;;;;;;;4.63;3.97;;;26.10;63.00;26.30;101401.00;;;;5011073;28;20195;-57
2023/08/21 05:09:22;;;;;;;4.32;3.58;;;26.10;63.10;26.30;101403.00;;;;5010987;28;20199;-56
2023/08/21 05:11:48;;;;;;;5.68;3.83;;;26.00;63.00;26.30;101385.00;;;;5010004;28;20722;-56
2023/08/21 05:14:14;;;;;;;6.10;3.65;;;25.90;63.40;26.20;101382.00;;;;5009830;28;20210;-55
2023/08/21 05:16:39;;;;;;;4.03;3.60;;;25.80;63.80;26.20;101384.00;;;;5010004;28;20183;-56
2023/08/21 05:19:05;;;;;;;4.53;4.00;;;25.90;64.80;26.20;101389.00;;;;5009729;28;20183;-56
2023/08/21 05:21:31;;;;;;;4.55;3.40;;;25.80;64.00;26.20;101387.00;;;;5010413;28;20176;-57
2023/08/21 05:23:57;;;;;;;6.70;3.60;;;26.00;64.10;26.20;101329.00;;;;5012634;28;20694;-57
2023/08/21 05:26:23;;;;;;;3.55;3.25;;;25.90;63.90;26.20;101387.00;;;;5009130;28;20203;-56
2023/08/21 05:28:49;;;;;;;4.55;3.35;;;25.90;63.70;26.20;101389.00;;;;5009357;28;20211;-56
2023/08/21 05:31:15;;;;;;;4.85;3.10;;;25.80;63.80;26.10;101401.00;;;;5008063;28;20178;-55
2023/08/21 05:33:40;;;;;;;4.10;3.30;;;25.80;63.80;26.10;101405.00;;;;5009468;28;20195;-55
2023/08/21 05:36:06;;;;;;;5.03;3.13;;;25.90;63.90;26.10;101410.00;;;;5009423;28;20180;-55
2023/08/21 05:38:32;;;;;;;3.85;3.20;;;25.90;63.90;26.10;101405.00;;;;5009384;28;20593;-55
2023/08/21 05:40:58;;;;;;;4.72;3.13;;;25.90;63.90;26.10;101401.00;;;;5009124;28;20207;-55
2023/08/21 05:43:24;;;;;;;4.15;3.10;;;25.90;64.00;26.10;101412.00;;;;5009255;28;20212;-55
2023/08/21 05:45:50;;;;;;;3.40;3.08;;;25.90;63.90;26.10;101409.00;;;;5009100;28;20229;-56
2023/08/21 05:48:17;;;;;;;4.05;3.05;;;25.80;63.90;26.00;101402.00;;;;5008806;28;20207;-57
2023/08/21 05:50:43;;;;;;;4.45;3.05;;;25.70;64.10;26.00;101408.00;;;;5009218;28;20175;-57
2023/08/21 05:53:08;;;;;;;4.90;3.20;;;25.70;64.30;26.00;101405.00;;;;5009294;28;20278;-57
2023/08/21 05:55:36;;;;;;;4.82;3.00;;;25.70;64.40;26.00;101413.00;;;;5009622;28;20639;-56
2023/08/21 05:58:02;;;;;;;4.38;3.20;;;25.80;64.50;26.00;101418.00;;;;4991862;28;20266;-56
2023/08/21 06:00:28;;;;;;;3.72;3.40;;;25.80;64.40;26.00;101421.00;;;;5007761;28;20234;-56
2023/08/21 06:02:54;;;;;;;3.63;3.20;;;25.80;64.50;26.00;101423.00;;;;5009229;28;20211;-56
2023/08/21 06:05:20;;;;;;;4.47;3.13;;;25.70;64.30;26.00;101418.00;;;;5009511;28;20743;-56
2023/08/21 06:07:46;;;;;;;3.38;2.75;;;25.70;64.40;26.00;101424.00;;;;5009350;28;20206;-56
2023/08/21 06:10:12;;;;;;;3.30;3.00;;;25.70;64.40;26.00;101424.00;;;;5008774;28;20265;-56
2023/08/21 06:12:40;;;;;;;4.70;3.20;;;25.70;64.40;26.00;101428.00;;;;5009000;28;20438;-56
2023/08/21 06:15:08;;;;;;;3.22;2.97;;;25.70;64.60;26.00;101420.00;;;;5008717;28;20176;-56
2023/08/21 06:17:34;;;;;;;3.00;2.80;;;25.70;64.40;26.00;101429.00;;;;5009163;28;20203;-56
2023/08/21 06:20:00;;;;;;;3.45;3.15;;;25.60;64.70;26.00;101436.00;;;;5008558;28;20176;-55
2023/08/21 06:22:26;;;;;;;4.10;3.17;;;25.70;64.80;26.00;101436.00;;;;4993150;28;20215;-57
2023/08/21 06:24:51;;;;;;;4.18;3.03;;;25.60;64.80;26.00;101429.00;;;;5008818;28;20179;-57
2023/08/21 06:27:17;;;;;;;3.75;3.03;;;25.70;64.90;26.00;101432.00;;;;5008822;28;20195;-56
2023/08/21 06:29:43;;;;;;;3.50;3.20;;;25.60;64.90;26.00;101428.00;;;;5008387;28;20203;-57
2023/08/21 06:32:09;;;;;;;3.55;3.22;;;25.60;65.00;26.00;101432.00;;;;5008426;28;20649;-57
2023/08/21 06:34:35;;;;;;;3.97;3.55;;;25.60;65.00;26.00;101441.00;;;;5009175;28;20672;-55
2023/08/21 06:37:00;;;;;;;4.80;3.70;;;25.60;65.00;26.00;101436.00;;;;5008892;28;20172;-55
2023/08/21 06:39:26;;;;;;;3.67;3.28;;;25.60;65.20;26.00;101435.00;;;;5008680;28;20180;-57
2023/08/21 06:41:52;;;;;;;4.63;3.63;;;25.60;65.30;26.00;101430.00;;;;5008504;28;20706;-55
2023/08/21 06:44:18;;;;;;;6.07;3.78;;;25.70;65.40;26.00;101437.00;;;;5008601;28;20196;-55
2023/08/21 06:46:44;;;;;;;4.25;3.60;;;25.70;65.30;26.00;101438.00;;;;5010662;28;20857;-55
2023/08/21 06:49:10;;;;;;;4.55;3.42;;;25.60;65.30;25.90;101435.00;;;;5012320;28;20210;-55
2023/08/21 06:51:35;;;;;;;4.72;3.70;;;25.70;65.30;25.90;101436.00;;;;5012542;28;20203;-55
2023/08/21 06:54:01;;;;;;;4.18;3.75;;;25.60;65.40;25.90;101432.00;;;;5012357;28;20275;-57
2023/08/21 06:56:27;;;;;;;4.80;3.70;;;25.60;65.30;25.90;101430.00;;;;5011399;28;20313;-56
2023/08/21 06:58:54;;;;;;;4.00;3.67;;;25.60;65.50;25.90;101429.00;;;;5011940;28;20658;-55
2023/08/21 07:01:21;;;;;;;4.22;3.83;;;25.60;65.70;25.90;101427.00;;;;5012578;28;20222;-55
2023/08/21 07:03:47;;;;;;;4.43;3.67;;;25.60;65.60;25.90;101430.00;;;;5011522;28;20286;-55
2023/08/21 07:06:12;;;;;;;4.50;3.63;;;25.60;65.80;25.90;101425.00;;;;5012632;28;20180;-57
2023/08/21 07:08:40;;;;;;;3.95;3.55;;;25.60;65.90;25.90;101419.00;;;;5010676;28;20211;-55
2023/08/21 07:11:07;;;;;;;5.32;3.45;;;25.60;66.30;25.90;101421.00;;;;5012043;28;20182;-56
2023/08/21 07:13:33;;;;;;;6.47;3.60;;;25.60;66.40;25.90;101427.00;;;;5013686;28;20254;-56
2023/08/21 07:16:02;;;;;;;4.30;3.88;;;25.50;66.50;25.90;101414.00;;;;5013666;28;20582;-57
2023/08/21 07:18:28;;;;;;;5.90;4.60;;;25.60;66.60;25.90;101425.00;;;;5012008;28;20191;-56
2023/08/21 07:20:54;;;;;;;4.47;3.92;;;25.60;66.80;25.90;101415.00;;;;5013302;28;20174;-57
2023/08/21 07:23:20;;;;;;;5.65;4.72;;;25.60;67.00;25.90;101428.00;;;;5012012;28;20211;-56
2023/08/21 07:25:45;;;;;;;5.13;4.55;;;25.50;67.10;25.90;101435.00;;;;5011885;28;20187;-56
2023/08/21 07:28:11;;;;;;;4.93;4.40;;;25.60;67.40;25.90;101438.00;;;;5011823;28;20233;-56
2023/08/21 07:30:38;;;;;;;5.65;4.75;;;25.60;68.00;25.90;101441.00;;;;5012279;28;20208;-56
2023/08/21 07:33:05;;;;;;;5.50;5.00;;;25.60;68.40;25.90;101445.00;;;;5011792;28;20203;-56
2023/08/21 07:35:31;;;;;;;5.20;4.70;;;25.50;68.80;25.90;101447.00;;;;5011638;28;20168;-56
2023/08/21 07:37:57;;;;;;;7.53;5.57;;;25.50;69.00;25.90;101427.00;;;;5011566;28;20188;-56
2023/08/21 07:40:22;;;;;;;5.63;5.03;;;25.50;69.10;25.80;101452.00;;;;5011105;28;20179;-56
2023/08/21 07:42:48;;;;;;;7.50;5.53;;;25.50;68.80;25.80;101447.00;;;;5011117;28;20231;-56
2023/08/21 07:45:14;;;;;;;5.85;5.35;;;25.50;69.10;25.80;101446.00;;;;5011922;28;20214;-56
2023/08/21 07:47:40;;;;;;;6.85;5.60;;;25.50;69.20;25.80;101445.00;;;;5010362;28;20182;-56
2023/08/21 07:50:06;;;;;;;7.25;6.55;;;25.50;69.70;25.70;101452.00;;;;5010779;28;20261;-56
2023/08/21 07:52:33;;;;;;;6.88;6.38;;;25.50;69.70;25.80;101448.00;;;;5010290;28;20638;-56
2023/08/21 07:55:01;;;;;;;8.05;6.00;;;25.50;69.90;25.80;101453.00;;;;5009964;28;20762;-56
2023/08/21 07:57:30;;;;;;;6.97;6.05;;;25.50;70.00;25.80;101448.00;;;;5006156;28;20254;-56
2023/08/21 07:59:56;;;;;;;6.50;5.88;;;25.50;69.90;25.80;101440.00;;;;5011059;28;20198;-56
2023/08/21 08:02:23;;;;;;;6.32;5.72;;;25.40;69.70;25.80;101444.00;;;;5009951;28;20637;-56
2023/08/21 08:04:48;;;;;;;6.68;6.00;;;25.40;69.60;25.80;101440.00;;;;5011051;28;20176;-56
2023/08/21 08:07:14;;;;;;;6.25;5.50;;;25.40;69.80;25.80;101439.00;;;;5009968;28;20187;-56
2023/08/21 08:09:40;;;;;;;6.57;5.88;;;25.40;69.60;25.80;101440.00;;;;5010492;28;20638;-56
2023/08/21 08:12:06;;;;;;;6.95;5.35;;;25.40;69.70;25.80;101433.00;;;;5010710;28;20198;-56
2023/08/21 08:14:32;;;;;;;6.07;5.47;;;25.40;69.60;25.70;101441.00;;;;5009832;28;20176;-56
2023/08/21 08:16:57;;;;;;;6.57;5.82;;;25.40;69.70;25.50;101452.00;;;;5010893;28;20526;-55
2023/08/21 08:19:23;;;;;;;6.85;5.50;;;25.40;69.80;25.70;101456.00;;;;5006351;28;20176;-56
2023/08/21 08:21:49;;;;;;;6.70;6.10;;;25.40;69.60;25.70;101454.00;;;;5011689;28;20646;-56
2023/08/21 08:24:15;;;;;;;7.05;6.00;;;25.40;69.70;25.70;101451.00;;;;5009928;28;20200;-56
2023/08/21 08:26:42;;;;;;;6.40;5.90;;;25.40;70.20;25.70;101460.00;;;;5009039;28;20567;-56
2023/08/21 08:29:08;;;;;;;7.15;6.45;;;25.40;70.10;25.70;101394.00;;;;5009871;28;20212;-56
2023/08/21 08:31:34;;;;;;;8.43;6.80;;;25.40;70.60;25.70;101444.00;;;;5009872;28;20183;-55
2023/08/21 08:34:00;;;;;;;6.72;6.13;;;25.40;70.60;25.70;101446.00;;;;5009700;28;20195;-54
2023/08/21 08:36:26;;;;;;;6.93;6.22;;;25.40;70.70;25.70;101444.00;;;;5010043;28;20202;-55
2023/08/21 08:38:51;;;;;;;5.95;5.40;;;25.30;70.60;25.70;101442.00;;;;5009588;28;20319;-55
2023/08/21 08:41:30;;;;;;;6.90;6.13;;;25.30;70.50;25.70;101442.00;;;;5009628;28;20183;-55
2023/08/21 08:43:59;;;;;;;6.18;5.57;;;25.30;70.60;25.70;101446.00;;;;5009052;28;20662;-55
2023/08/21 08:46:25;;;;;;;7.07;5.90;;;25.30;70.70;25.70;101442.00;;;;5008916;28;20175;-55
2023/08/21 08:48:53;;;;;;;7.50;6.35;;;25.30;70.60;25.70;101445.00;;;;5009361;28;20195;-55
2023/08/21 08:51:19;;;;;;;6.07;5.47;;;25.30;70.50;25.70;101439.00;;;;4975996;28;20190;-55
2023/08/21 08:53:45;;;;;;;6.38;5.60;;;25.30;70.60;25.70;101446.00;;;;5008843;28;20203;-55
2023/08/21 08:56:10;;;;;;;6.90;5.65;;;25.30;71.10;25.70;101446.00;;;;5009890;28;20528;-55
2023/08/21 08:58:36;;;;;;;5.90;5.30;;;25.30;71.50;25.70;101449.00;;;;5009568;28;20180;-55
2023/08/21 09:01:02;;;;;;;7.43;5.82;;;25.20;71.40;25.70;101442.00;;;;5008750;28;20235;-55
2023/08/21 09:03:28;;;;;;;6.72;6.00;;;25.20;71.60;25.70;101455.00;;;;5009698;28;20204;-55
2023/08/21 09:05:54;;;;;;;8.13;6.50;;;25.30;71.30;25.70;101457.00;;;;4975796;28;20171;-55
2023/08/21 09:08:20;;;;;;;7.70;6.90;;;25.30;71.30;25.70;101455.00;;;;5008969;28;20195;-55
2023/08/21 09:10:45;;;;;;;9.10;7.78;;;25.30;71.30;25.70;101445.00;;;;5008450;28;20267;-55
2023/08/21 09:13:19;;;;;;;7.85;7.10;;;25.30;71.20;25.70;101452.00;;;;5008376;28;20247;-55
2023/08/21 09:15:50;;;;;;;7.68;6.93;;;25.30;71.30;25.70;101448.00;;;;5009506;28;20179;-55
2023/08/21 09:18:16;;;;;;;7.95;6.85;;;25.30;71.30;25.70;101453.00;;;;5009159;28;20828;-56
2023/08/21 09:20:42;;;;;;;7.63;6.82;;;25.20;71.80;25.70;101458.00;;;;5010474;28;20175;-55
2023/08/21 09:23:08;;;;;;;8.15;7.20;;;25.20;71.70;25.80;101448.00;;;;5009165;28;20270;-56
2023/08/21 09:25:38;;;;;;;9.20;8.30;;;25.30;71.90;25.70;101448.00;;;;5009484;28;20180;-54
2023/08/21 09:28:06;;;;;;;8.23;7.43;;;25.20;71.80;25.70;101457.00;;;;5008041;28;20650;-55
2023/08/21 09:30:55;;;;;;;8.48;7.68;;;25.20;72.10;25.80;101446.00;;;;5008714;28;20318;-55
2023/08/21 09:33:23;;;;;;;7.97;7.25;;;25.20;72.00;25.80;101452.00;;;;5008351;28;20238;-53
2023/08/21 09:35:52;;;;;;;7.70;6.90;;;25.30;72.30;25.90;101437.00;;;;5011156;28;20179;-53
2023/08/21 09:38:21;;;;;;;8.15;6.45;;;25.40;72.00;25.90;101446.00;;;;5009374;28;20568;-51
2023/08/21 09:40:54;;;;;;;7.18;5.88;;;25.50;71.90;26.00;101446.00;;;;5008570;28;20238;-51
2023/08/21 09:43:21;;;;;;;7.60;6.18;;;25.50;72.00;26.10;101441.00;;;;5009835;28;20705;-51
2023/08/21 09:45:48;;;;;;;7.47;6.07;;;25.50;71.70;26.10;101446.00;;;;5008957;28;20176;-51
2023/08/21 09:48:14;;;;;;;8.25;6.07;;;25.60;71.90;26.20;101436.00;;;;5009171;28;20167;-52
2023/08/21 09:50:42;;;;;;;8.35;5.82;;;25.60;72.20;26.20;101435.00;;;;5008297;28;20249;-52
2023/08/21 09:53:08;;;;;;;6.45;5.68;;;25.60;72.40;26.20;101439.00;;;;5009221;28;20258;-51
2023/08/21 09:55:34;;;;;;;8.88;5.30;;;25.70;72.60;26.30;101427.00;;;;5008956;28;20222;-51
2023/08/21 09:58:00;;;;;;;8.57;5.30;;;25.70;72.60;26.30;101435.00;;;;5007507;28;20175;-53
2023/08/21 10:00:34;;;;;;;6.32;5.47;;;25.70;72.50;26.30;101442.00;;;;5007976;28;20195;-53
2023/08/21 10:03:06;;;;;;;7.07;5.50;;;25.70;72.70;26.40;101439.00;;;;5008808;28;20744;-51
2023/08/21 10:05:34;;;;;;;6.63;5.13;;;25.70;72.60;26.40;101432.00;;;;5007147;28;20187;-53
2023/08/21 10:08:04;;;;;;;5.97;5.25;;;25.70;72.90;26.40;101428.00;;;;5007369;28;20183;-52
2023/08/21 10:10:35;;;;;;;5.75;5.15;;;25.80;73.10;26.50;101417.00;;;;5007198;28;20196;-52
2023/08/21 10:13:01;;;;;;;5.40;5.00;;;25.80;73.30;26.50;101429.00;;;;5008713;28;20203;-52
2023/08/21 10:15:28;;;;;;;6.65;5.03;;;25.80;73.20;26.50;101424.00;;;;4991587;28;20566;-52
2023/08/21 10:17:53;;;;;;;5.72;5.20;;;25.80;73.30;26.50;101416.00;;;;5007313;28;20491;-52
2023/08/21 10:20:25;;;;;;;6.00;5.15;;;25.80;73.60;26.50;101413.00;;;;5007604;28;20206;-52
2023/08/21 10:22:56;;;;;;;6.00;5.35;;;25.80;73.70;26.60;101425.00;;;;5012291;28;20206;-52
2023/08/21 10:25:25;;;;;;;5.78;5.22;;;25.90;74.00;26.60;101409.00;;;;5012682;28;20202;-52
2023/08/21 10:27:55;;;;;;;6.18;4.88;;;25.80;73.90;26.60;101413.00;;;;5012661;28;20554;-52
2023/08/21 10:30:24;;;;;;;6.70;4.97;;;25.90;74.10;26.60;101413.00;;;;5010461;28;20602;-51
2023/08/21 10:32:52;;;;;;;7.50;5.05;;;25.90;74.20;26.60;101413.00;;;;5010837;28;20527;-51
2023/08/21 10:35:22;;;;;;;4.95;4.55;;;25.90;74.30;26.70;101403.00;;;;5012189;28;20172;-52
2023/08/21 10:38:13;;;;;;;5.10;4.70;;;25.90;74.30;26.70;101404.00;;;;5012662;28;20187;-52
2023/08/21 10:41:04;;;;;;;5.10;4.70;;;25.90;74.40;26.70;101405.00;;;;5011813;28;20241;-51
2023/08/21 10:43:46;;;;;;;5.35;4.85;;;26.00;74.60;26.70;101401.00;;;;5012051;28;20211;-51
2023/08/21 10:46:12;;;;;;;5.15;4.65;;;26.00;74.60;26.70;101414.00;;;;5012807;28;20480;-51